Time;durP1;ratioP1;P1;durP2;ratioP2;P2;SDS_P1;SDS_P2;PMS_P1;PMS_P2;Temp;Humidity;BMP_temperature;BMP_pressure;BME280_temperature;BME280_humidity;BME280_pressure;Samples;Min_cycle;Max_cycle;Signal;HPM_P1;HPM_P2
2021/11/23 00:01:15;;;;;;;4.70;4.10;;;;;;;;;;5100223;28;20201;-72
2021/11/23 00:03:43;;;;;;;6.27;4.17;;;;;;;;;;5100113;28;20636;-72
2021/11/23 00:06:12;;;;;;;4.30;3.83;;;;;;;;;;5100131;28;20659;-72
2021/11/23 00:08:41;;;;;;;5.30;4.53;;;;;;;;;;5100422;28;20293;-72
2021/11/23 00:11:09;;;;;;;4.90;4.37;;;;;;;;;;5100083;28;20206;-72
2021/11/23 00:13:36;;;;;;;5.67;4.23;;;;;;;;;;5100291;28;20288;-72
2021/11/23 00:16:05;;;;;;;5.73;4.37;;;;;;;;;;5099968;28;20253;-72
2021/11/23 00:18:33;;;;;;;6.43;4.10;;;;;;;;;;5099960;28;20221;-72
2021/11/23 00:21:01;;;;;;;3.90;3.50;;;;;;;;;;5099799;28;20582;-72
2021/11/23 00:23:30;;;;;;;4.50;4.10;;;;;;;;;;5100110;28;20243;-72
2021/11/23 00:25:59;;;;;;;4.80;3.80;;;;;;;;;;5099799;28;20206;-72
2021/11/23 00:28:27;;;;;;;6.13;4.00;;;;;;;;;;5099857;28;20220;-72
2021/11/23 00:30:55;;;;;;;4.40;4.00;;;;;;;;;;5100030;28;20206;-72
2021/11/23 00:33:23;;;;;;;5.27;3.73;;;;;;;;;;5099901;28;20202;-72
2021/11/23 00:35:51;;;;;;;5.03;4.00;;;;;;;;;;5099441;28;20229;-72
2021/11/23 00:38:19;;;;;;;4.17;3.77;;;;;;;;;;5099739;28;20225;-72
2021/11/23 00:40:48;;;;;;;6.43;4.10;;;;;;;;;;5099584;28;20202;-72
2021/11/23 00:43:16;;;;;;;4.10;3.70;;;;;;;;;;5099358;28;20241;-72
2021/11/23 00:45:44;;;;;;;4.77;3.53;;;;;;;;;;5099338;28;20208;-72
2021/11/23 00:48:12;;;;;;;4.90;4.40;;;;;;;;;;5099243;28;20685;-72
2021/11/23 00:50:40;;;;;;;6.77;3.80;;;;;;;;;;5099259;28;20692;-72
2021/11/23 00:53:08;;;;;;;5.33;4.00;;;;;;;;;;5099222;28;20568;-71
2021/11/23 00:55:36;;;;;;;3.93;3.57;;;;;;;;;;5099200;28;20229;-72
2021/11/23 00:58:05;;;;;;;5.10;3.53;;;;;;;;;;5099039;28;20229;-72
2021/11/23 01:00:34;;;;;;;4.57;3.83;;;;;;;;;;5098986;28;20212;-72
2021/11/23 01:03:01;;;;;;;5.37;3.93;;;;;;;;;;5099219;28;20209;-72
2021/11/23 01:05:29;;;;;;;3.97;3.57;;;;;;;;;;5098976;28;20289;-71
2021/11/23 01:07:57;;;;;;;5.70;4.10;;;;;;;;;;5098795;28;20605;-72
2021/11/23 01:10:25;;;;;;;5.00;4.27;;;;;;;;;;5098943;28;20205;-72
2021/11/23 01:12:53;;;;;;;6.47;4.07;;;;;;;;;;5099099;28;20206;-72
2021/11/23 01:15:23;;;;;;;4.80;4.20;;;;;;;;;;5098675;28;20217;-72
2021/11/23 01:17:51;;;;;;;6.50;4.07;;;;;;;;;;5098658;28;20210;-72
2021/11/23 01:20:19;;;;;;;4.97;3.97;;;;;;;;;;5098569;28;20568;-72
2021/11/23 01:22:47;;;;;;;5.00;4.00;;;;;;;;;;5098927;28;20212;-73
2021/11/23 01:25:16;;;;;;;7.23;4.20;;;;;;;;;;5098325;28;20691;-72
2021/11/23 01:27:44;;;;;;;6.60;4.40;;;;;;;;;;5098368;28;20275;-72
2021/11/23 01:30:12;;;;;;;4.27;3.87;;;;;;;;;;5098679;28;20215;-72
2021/11/23 01:32:42;;;;;;;5.43;4.53;;;;;;;;;;5098684;28;20272;-72
2021/11/23 01:35:12;;;;;;;7.53;4.30;;;;;;;;;;5098318;28;20633;-72
2021/11/23 01:37:41;;;;;;;4.63;4.20;;;;;;;;;;5098088;28;20209;-72
2021/11/23 01:40:11;;;;;;;5.00;4.33;;;;;;;;;;5098432;28;20284;-73
2021/11/23 01:42:39;;;;;;;5.30;4.03;;;;;;;;;;5098408;28;20293;-74
2021/11/23 01:45:07;;;;;;;5.63;4.30;;;;;;;;;;5098228;28;20206;-73
2021/11/23 01:47:35;;;;;;;5.70;4.43;;;;;;;;;;5098236;28;20209;-73
2021/11/23 01:50:06;;;;;;;6.97;3.67;;;;;;;;;;5098526;28;20205;-74
2021/11/23 01:52:34;;;;;;;7.20;3.13;;;;;;;;;;5098604;28;20572;-74
2021/11/23 01:55:04;;;;;;;5.47;4.10;;;;;;;;;;5097791;28;20205;-74
2021/11/23 01:57:32;;;;;;;4.77;3.50;;;;;;;;;;5098317;28;20680;-74
2021/11/23 02:00:00;;;;;;;4.03;3.63;;;;;;;;;;5097909;28;20738;-74
2021/11/23 02:02:28;;;;;;;4.77;3.77;;;;;;;;;;5098017;28;20728;-74
2021/11/23 02:04:56;;;;;;;4.90;3.50;;;;;;;;;;5097927;28;20233;-74
2021/11/23 02:07:26;;;;;;;5.43;3.93;;;;;;;;;;5097946;28;20223;-75
2021/11/23 02:09:54;;;;;;;4.17;3.30;;;;;;;;;;5097501;28;20235;-74
2021/11/23 02:12:22;;;;;;;4.90;3.63;;;;;;;;;;5097847;28;20206;-74
2021/11/23 02:14:50;;;;;;;9.30;3.93;;;;;;;;;;5098013;28;20203;-74
2021/11/23 02:17:18;;;;;;;5.80;3.60;;;;;;;;;;5097626;28;20251;-72
2021/11/23 02:19:50;;;;;;;3.87;3.50;;;;;;;;;;5097825;28;20232;-73
2021/11/23 02:22:17;;;;;;;3.20;2.97;;;;;;;;;;5097990;28;20206;-73
2021/11/23 02:24:46;;;;;;;4.17;3.77;;;;;;;;;;5097584;28;20292;-74
2021/11/23 02:27:14;;;;;;;3.47;3.20;;;;;;;;;;5096890;28;20657;-74
2021/11/23 02:29:42;;;;;;;4.23;3.40;;;;;;;;;;5096522;28;20229;-74
2021/11/23 02:32:10;;;;;;;3.60;3.20;;;;;;;;;;5097558;28;20197;-73
2021/11/23 02:34:38;;;;;;;3.67;3.37;;;;;;;;;;5097570;28;20202;-74
2021/11/23 02:37:07;;;;;;;3.70;3.27;;;;;;;;;;5096578;28;20229;-74
2021/11/23 02:39:36;;;;;;;3.80;3.40;;;;;;;;;;5097132;28;20217;-74
2021/11/23 02:42:04;;;;;;;4.53;3.60;;;;;;;;;;5094265;28;20201;-74
2021/11/23 02:44:41;;;;;;;5.43;3.40;;;;;;;;;;5097062;28;20237;-74
2021/11/23 02:47:09;;;;;;;4.60;3.40;;;;;;;;;;5095476;28;20193;-73
2021/11/23 02:49:36;;;;;;;5.27;3.20;;;;;;;;;;5096751;28;20317;-74
2021/11/23 02:52:08;;;;;;;5.30;3.20;;;;;;;;;;5099154;28;20211;-74
2021/11/23 02:54:38;;;;;;;4.03;3.20;;;;;;;;;;5099893;28;20223;-74
2021/11/23 02:57:06;;;;;;;4.40;3.77;;;;;;;;;;5099075;28;20584;-74
2021/11/23 02:59:35;;;;;;;3.97;3.13;;;;;;;;;;5101084;28;20217;-74
2021/11/23 03:02:08;;;;;;;5.73;3.63;;;;;;;;;;5098616;28;20287;-74
2021/11/23 03:04:37;;;;;;;3.53;3.23;;;;;;;;;;5101280;28;20200;-74
2021/11/23 03:07:05;;;;;;;3.20;2.90;;;;;;;;;;5100889;28;20208;-74
2021/11/23 03:09:33;;;;;;;3.67;3.37;;;;;;;;;;5100799;28;20220;-74
2021/11/23 03:12:02;;;;;;;5.30;3.50;;;;;;;;;;5101282;28;20197;-74
2021/11/23 03:14:31;;;;;;;4.13;3.40;;;;;;;;;;5100447;28;20201;-74
2021/11/23 03:16:59;;;;;;;3.87;3.27;;;;;;;;;;5100762;28;20218;-74
2021/11/23 03:19:27;;;;;;;4.17;3.00;;;;;;;;;;5100539;28;20218;-74
2021/11/23 03:21:55;;;;;;;3.53;3.23;;;;;;;;;;5100794;28;20197;-74
2021/11/23 03:24:23;;;;;;;4.37;3.30;;;;;;;;;;5097880;28;20197;-75
2021/11/23 03:26:51;;;;;;;4.07;3.07;;;;;;;;;;5100788;28;20198;-74
2021/11/23 03:29:21;;;;;;;3.60;3.30;;;;;;;;;;5101016;28;20218;-74
2021/11/23 03:31:49;;;;;;;3.33;3.03;;;;;;;;;;5100794;28;20198;-74
2021/11/23 03:34:17;;;;;;;3.43;3.13;;;;;;;;;;5100236;28;20576;-74
2021/11/23 03:36:46;;;;;;;3.73;3.43;;;;;;;;;;5099774;28;20224;-74
2021/11/23 03:39:13;;;;;;;6.23;3.30;;;;;;;;;;5100077;28;20221;-74
2021/11/23 03:41:41;;;;;;;3.77;3.37;;;;;;;;;;5100083;28;20202;-75
2021/11/23 03:44:10;;;;;;;3.57;2.67;;;;;;;;;;5099426;28;20229;-74
2021/11/23 03:46:39;;;;;;;3.70;3.10;;;;;;;;;;5099309;28;20567;-74
2021/11/23 03:49:07;;;;;;;3.70;3.13;;;;;;;;;;5099216;28;20244;-74
2021/11/23 03:51:35;;;;;;;3.17;2.97;;;;;;;;;;5098977;28;20585;-74
2021/11/23 03:54:03;;;;;;;4.00;3.20;;;;;;;;;;5099444;28;20706;-74
2021/11/23 03:56:31;;;;;;;4.03;3.13;;;;;;;;;;5098884;28;20289;-73
2021/11/23 03:58:59;;;;;;;3.13;2.70;;;;;;;;;;5099353;28;20236;-74
2021/11/23 04:01:27;;;;;;;3.20;2.90;;;;;;;;;;5098727;28;20219;-74
2021/11/23 04:03:57;;;;;;;3.70;3.10;;;;;;;;;;5099379;28;20237;-74
2021/11/23 04:06:24;;;;;;;4.20;3.00;;;;;;;;;;5098875;28;20212;-73
2021/11/23 04:08:52;;;;;;;3.53;3.07;;;;;;;;;;5098942;28;20727;-73
2021/11/23 04:11:20;;;;;;;3.50;3.20;;;;;;;;;;5098750;28;20724;-74
2021/11/23 04:13:48;;;;;;;4.33;3.03;;;;;;;;;;5092970;28;20214;-74
2021/11/23 04:16:17;;;;;;;3.50;3.20;;;;;;;;;;5096285;28;20212;-74
2021/11/23 04:18:45;;;;;;;3.70;3.40;;;;;;;;;;5098857;28;20718;-74
2021/11/23 04:21:15;;;;;;;4.93;3.53;;;;;;;;;;5099128;28;20215;-74
2021/11/23 04:23:43;;;;;;;5.57;3.30;;;;;;;;;;5098738;28;20236;-74
2021/11/23 04:26:11;;;;;;;3.23;2.67;;;;;;;;;;5098442;28;20235;-74
2021/11/23 04:28:39;;;;;;;3.80;2.97;;;;;;;;;;5098524;28;20297;-74
2021/11/23 04:31:08;;;;;;;3.27;2.80;;;;;;;;;;5098635;28;20213;-74
2021/11/23 04:33:36;;;;;;;3.70;3.40;;;;;;;;;;5098986;28;20205;-74
2021/11/23 04:36:05;;;;;;;3.23;2.93;;;;;;;;;;5098529;28;20205;-73
2021/11/23 04:38:34;;;;;;;5.70;3.70;;;;;;;;;;5098346;28;20239;-74
2021/11/23 04:41:03;;;;;;;3.40;3.07;;;;;;;;;;5098487;28;20205;-74
2021/11/23 04:43:31;;;;;;;2.87;2.67;;;;;;;;;;5053339;28;1286993;-74
2021/11/23 04:45:59;;;;;;;3.10;2.80;;;;;;;;;;5099626;28;20205;-74
2021/11/23 04:48:27;;;;;;;3.50;2.90;;;;;;;;;;5099467;28;20228;-73
2021/11/23 04:50:55;;;;;;;4.00;3.10;;;;;;;;;;5099306;28;20213;-74
2021/11/23 04:53:24;;;;;;;3.57;3.10;;;;;;;;;;5099293;28;20210;-74
2021/11/23 04:55:53;;;;;;;4.47;3.10;;;;;;;;;;5099189;28;20205;-74
2021/11/23 04:58:21;;;;;;;4.53;3.10;;;;;;;;;;5099186;28;20241;-74
2021/11/23 05:00:49;;;;;;;4.80;3.50;;;;;;;;;;5099536;28;20205;-73
2021/11/23 05:03:17;;;;;;;5.17;3.17;;;;;;;;;;5099338;28;20209;-73
2021/11/23 05:05:45;;;;;;;3.13;2.90;;;;;;;;;;5098883;28;20216;-73
2021/11/23 05:08:13;;;;;;;4.30;2.83;;;;;;;;;;5099411;28;20232;-74
2021/11/23 05:10:41;;;;;;;4.67;3.17;;;;;;;;;;5098568;28;20785;-74
2021/11/23 05:13:11;;;;;;;3.50;2.60;;;;;;;;;;5098256;28;20211;-73
2021/11/23 05:15:38;;;;;;;3.53;3.10;;;;;;;;;;5099045;28;20198;-73
2021/11/23 05:18:06;;;;;;;3.57;3.27;;;;;;;;;;5098624;28;20229;-73
2021/11/23 05:20:34;;;;;;;4.53;3.43;;;;;;;;;;5098537;28;20690;-74
2021/11/23 05:23:02;;;;;;;3.93;2.97;;;;;;;;;;5099194;28;20206;-73
2021/11/23 05:25:30;;;;;;;3.80;3.33;;;;;;;;;;5098724;28;20220;-74
2021/11/23 05:27:58;;;;;;;3.07;2.77;;;;;;;;;;5098884;28;20242;-74
2021/11/23 05:30:28;;;;;;;3.40;3.10;;;;;;;;;;5098721;28;20201;-74
2021/11/23 05:32:56;;;;;;;4.57;3.00;;;;;;;;;;5099987;28;20586;-73
2021/11/23 05:35:23;;;;;;;4.93;3.97;;;;;;;;;;5090482;28;20198;-73
2021/11/23 05:37:51;;;;;;;4.40;3.60;;;;;;;;;;5084554;28;20220;-74
2021/11/23 05:40:20;;;;;;;5.07;3.57;;;;;;;;;;5087333;28;20194;-73
2021/11/23 05:42:47;;;;;;;9.73;4.13;;;;;;;;;;5083426;28;20653;-73
2021/11/23 05:45:15;;;;;;;3.70;3.27;;;;;;;;;;5085547;28;20197;-74
2021/11/23 05:47:45;;;;;;;3.80;3.40;;;;;;;;;;5085126;28;20228;-74
2021/11/23 05:50:13;;;;;;;3.60;3.10;;;;;;;;;;5093109;28;20194;-74
2021/11/23 05:52:41;;;;;;;3.70;3.40;;;;;;;;;;5107649;28;20203;-74
2021/11/23 05:55:09;;;;;;;6.93;4.20;;;;;;;;;;5089264;28;20201;-74
2021/11/23 05:57:37;;;;;;;5.40;3.40;;;;;;;;;;5085774;28;20217;-74
2021/11/23 06:00:06;;;;;;;5.97;3.20;;;;;;;;;;5085858;28;20205;-73
2021/11/23 06:02:34;;;;;;;4.27;3.30;;;;;;;;;;5085360;28;20281;-73
2021/11/23 06:05:03;;;;;;;3.90;3.50;;;;;;;;;;5083227;28;20233;-74
2021/11/23 06:07:31;;;;;;;3.90;3.23;;;;;;;;;;5085846;28;20583;-73
2021/11/23 06:09:59;;;;;;;4.63;3.57;;;;;;;;;;5082623;28;20222;-74
2021/11/23 06:12:30;;;;;;;4.07;3.60;;;;;;;;;;5085647;28;20262;-73
2021/11/23 06:14:58;;;;;;;4.13;3.43;;;;;;;;;;5085213;28;20281;-73
2021/11/23 06:17:28;;;;;;;3.93;2.87;;;;;;;;;;5085821;28;20289;-73
2021/11/23 06:19:56;;;;;;;4.83;4.13;;;;;;;;;;5085617;28;20222;-74
2021/11/23 06:22:27;;;;;;;3.87;3.47;;;;;;;;;;5085517;28;20288;-73
2021/11/23 06:24:54;;;;;;;4.37;3.93;;;;;;;;;;5084735;28;20204;-74
2021/11/23 06:27:22;;;;;;;3.67;3.37;;;;;;;;;;5085656;28;20201;-73
2021/11/23 06:29:50;;;;;;;5.13;4.07;;;;;;;;;;5086258;28;20218;-74
2021/11/23 06:32:18;;;;;;;3.53;3.23;;;;;;;;;;5083564;28;20557;-73
2021/11/23 06:34:46;;;;;;;3.50;3.20;;;;;;;;;;5082845;28;20198;-73
2021/11/23 06:37:14;;;;;;;3.50;2.90;;;;;;;;;;5094104;28;20208;-73
2021/11/23 06:39:44;;;;;;;4.30;3.90;;;;;;;;;;5097367;28;20229;-73
2021/11/23 06:42:12;;;;;;;5.17;3.33;;;;;;;;;;5097770;28;20206;-73
2021/11/23 06:44:40;;;;;;;8.23;3.37;;;;;;;;;;5097320;28;20233;-73
2021/11/23 06:47:08;;;;;;;4.73;3.97;;;;;;;;;;5097456;28;20630;-74
2021/11/23 06:49:36;;;;;;;4.40;4.00;;;;;;;;;;5097352;28;20300;-72
2021/11/23 06:52:04;;;;;;;5.23;3.70;;;;;;;;;;5097543;28;20671;-74
2021/11/23 06:54:32;;;;;;;4.53;3.27;;;;;;;;;;5097418;28;20212;-73
2021/11/23 06:57:02;;;;;;;3.93;3.50;;;;;;;;;;5094125;28;20212;-73
2021/11/23 06:59:30;;;;;;;5.23;3.47;;;;;;;;;;5097403;28;20236;-74
2021/11/23 07:01:58;;;;;;;4.43;4.03;;;;;;;;;;5097080;28;20197;-74
2021/11/23 07:04:26;;;;;;;4.57;3.97;;;;;;;;;;5097078;28;20229;-75
2021/11/23 07:06:54;;;;;;;5.33;3.50;;;;;;;;;;5085289;28;20204;-75
2021/11/23 07:09:22;;;;;;;4.50;3.53;;;;;;;;;;5090424;28;20221;-75
2021/11/23 07:11:50;;;;;;;4.23;3.40;;;;;;;;;;5088464;28;20209;-76
2021/11/23 07:14:19;;;;;;;6.30;4.00;;;;;;;;;;5092126;28;20212;-75
2021/11/23 07:16:47;;;;;;;6.33;3.63;;;;;;;;;;5097097;28;20208;-75
2021/11/23 07:19:16;;;;;;;4.07;3.67;;;;;;;;;;5096599;28;20229;-75
2021/11/23 07:21:44;;;;;;;4.67;3.53;;;;;;;;;;5096809;28;20649;-76
2021/11/23 07:24:12;;;;;;;6.17;4.00;;;;;;;;;;5096650;28;20266;-75
2021/11/23 07:26:40;;;;;;;5.47;3.90;;;;;;;;;;5086570;28;20693;-75
2021/11/23 07:29:08;;;;;;;5.90;3.70;;;;;;;;;;5086789;28;20722;-73
2021/11/23 07:31:38;;;;;;;5.23;3.77;;;;;;;;;;5096910;28;20205;-75
2021/11/23 07:34:06;;;;;;;9.30;3.90;;;;;;;;;;5096998;28;20208;-75
2021/11/23 07:36:34;;;;;;;3.30;3.00;;;;;;;;;;5098006;28;20571;-74
2021/11/23 07:39:02;;;;;;;4.20;3.27;;;;;;;;;;5100344;28;20711;-75
2021/11/23 07:41:30;;;;;;;3.87;3.47;;;;;;;;;;5098956;28;20985;-75
2021/11/23 07:43:58;;;;;;;4.50;3.30;;;;;;;;;;5100048;28;20237;-75
2021/11/23 07:46:26;;;;;;;4.97;3.23;;;;;;;;;;5100756;28;20444;-73
2021/11/23 07:48:56;;;;;;;5.40;3.00;;;;;;;;;;5100186;28;20300;-75
2021/11/23 07:51:24;;;;;;;4.33;2.93;;;;;;;;;;5100181;28;20229;-74
2021/11/23 07:53:52;;;;;;;6.30;4.00;;;;;;;;;;5100198;28;20296;-74
2021/11/23 07:56:21;;;;;;;5.40;4.00;;;;;;;;;;5090071;28;20599;-74
2021/11/23 07:58:49;;;;;;;4.30;3.77;;;;;;;;;;5096428;28;20226;-75
2021/11/23 08:01:17;;;;;;;4.70;3.40;;;;;;;;;;5102767;28;20202;-74
2021/11/23 08:03:45;;;;;;;4.60;3.70;;;;;;;;;;5101679;28;20650;-74
2021/11/23 08:06:15;;;;;;;5.03;3.67;;;;;;;;;;5087352;28;20284;-74
2021/11/23 08:08:43;;;;;;;5.47;3.70;;;;;;;;;;5100499;28;20252;-74
2021/11/23 08:11:11;;;;;;;4.43;3.30;;;;;;;;;;5109412;28;20669;-75
2021/11/23 08:13:39;;;;;;;5.13;4.17;;;;;;;;;;5108095;28;20203;-75
2021/11/23 08:16:07;;;;;;;4.67;3.50;;;;;;;;;;5106016;28;20277;-75
2021/11/23 08:18:36;;;;;;;4.50;3.63;;;;;;;;;;5109360;28;20561;-74
2021/11/23 08:21:04;;;;;;;4.60;3.80;;;;;;;;;;5106696;28;20225;-75
2021/11/23 08:23:34;;;;;;;6.67;3.50;;;;;;;;;;5110589;28;20215;-74
2021/11/23 08:26:02;;;;;;;4.33;3.27;;;;;;;;;;5108544;28;20240;-74
2021/11/23 08:28:30;;;;;;;5.00;3.50;;;;;;;;;;5105035;28;20594;-74
2021/11/23 08:30:59;;;;;;;5.70;3.87;;;;;;;;;;5099595;28;20292;-74
2021/11/23 08:33:27;;;;;;;4.03;3.63;;;;;;;;;;5104909;28;20193;-74
2021/11/23 08:35:55;;;;;;;4.90;3.97;;;;;;;;;;5104527;28;20201;-74
2021/11/23 08:38:23;;;;;;;3.97;3.30;;;;;;;;;;5109843;28;20225;-74
2021/11/23 08:40:52;;;;;;;4.17;3.73;;;;;;;;;;5106580;28;20222;-74
2021/11/23 08:43:20;;;;;;;3.60;3.20;;;;;;;;;;5106983;28;20224;-75
2021/11/23 08:45:49;;;;;;;4.50;3.40;;;;;;;;;;5110189;28;20240;-74
2021/11/23 08:48:17;;;;;;;4.93;3.47;;;;;;;;;;5102414;28;20248;-74
2021/11/23 08:50:45;;;;;;;4.07;3.67;;;;;;;;;;5099280;28;20284;-75
2021/11/23 08:53:13;;;;;;;5.00;3.47;;;;;;;;;;5099191;28;20210;-74
2021/11/23 08:55:41;;;;;;;5.53;4.50;;;;;;;;;;5095039;28;20200;-74
2021/11/23 08:58:11;;;;;;;6.47;3.80;;;;;;;;;;5097384;28;20257;-74
2021/11/23 09:00:39;;;;;;;5.17;3.27;;;;;;;;;;5099448;28;20233;-74
2021/11/23 09:03:07;;;;;;;3.50;3.20;;;;;;;;;;5102944;28;20239;-74
2021/11/23 09:05:37;;;;;;;4.97;3.67;;;;;;;;;;5108623;28;20721;-74
2021/11/23 09:08:06;;;;;;;3.50;3.13;;;;;;;;;;5108028;28;20224;-74
2021/11/23 09:10:36;;;;;;;6.70;3.80;;;;;;;;;;5105225;28;20197;-74
2021/11/23 09:13:04;;;;;;;5.47;3.70;;;;;;;;;;5106602;28;20204;-74
2021/11/23 09:15:34;;;;;;;4.37;3.47;;;;;;;;;;5104165;28;20289;-74
2021/11/23 09:18:03;;;;;;;5.87;4.03;;;;;;;;;;5098813;28;20327;-74
2021/11/23 09:20:35;;;;;;;4.37;3.67;;;;;;;;;;5098406;28;20338;-74
2021/11/23 09:23:04;;;;;;;5.13;3.30;;;;;;;;;;5098041;28;20289;-73
2021/11/23 09:25:32;;;;;;;5.07;3.73;;;;;;;;;;5098033;28;20293;-74
2021/11/23 09:28:00;;;;;;;5.47;3.93;;;;;;;;;;5098210;28;20249;-74
2021/11/23 09:30:30;;;;;;;5.23;4.10;;;;;;;;;;5085159;28;20277;-73
2021/11/23 09:33:00;;;;;;;5.73;3.57;;;;;;;;;;5085466;28;20199;-74
2021/11/23 09:35:28;;;;;;;10.40;4.03;;;;;;;;;;5104894;28;20259;-74
2021/11/23 09:37:56;;;;;;;7.70;4.23;;;;;;;;;;5109063;28;20213;-74
2021/11/23 09:40:24;;;;;;;6.93;3.80;;;;;;;;;;5104631;28;20217;-75
2021/11/23 09:42:53;;;;;;;7.77;5.00;;;;;;;;;;5107992;28;20198;-75
2021/11/23 09:45:22;;;;;;;5.67;3.93;;;;;;;;;;5104553;28;20198;-75
2021/11/23 09:47:49;;;;;;;9.67;4.60;;;;;;;;;;5108194;28;20224;-71
2021/11/23 09:50:19;;;;;;;6.97;5.13;;;;;;;;;;5110377;28;20209;-70
2021/11/23 09:52:47;;;;;;;7.33;4.67;;;;;;;;;;5098028;28;20215;-70
2021/11/23 09:55:16;;;;;;;6.63;4.73;;;;;;;;;;5097494;28;20571;-70
2021/11/23 09:57:45;;;;;;;7.60;4.90;;;;;;;;;;5106395;28;20194;-71
2021/11/23 10:00:29;;;;;;;7.67;4.83;;;;;;;;;;5104126;28;20305;-71
2021/11/23 10:03:08;;;;;;;7.60;5.00;;;;;;;;;;5103192;28;20197;-70
2021/11/23 10:05:39;;;;;;;7.20;5.20;;;;;;;;;;5103077;28;20695;-71
2021/11/23 10:08:09;;;;;;;10.23;5.60;;;;;;;;;;5106085;28;20221;-71
2021/11/23 10:10:47;;;;;;;7.73;5.60;;;;;;;;;;5102472;28;20197;-71
2021/11/23 10:13:16;;;;;;;7.60;4.60;;;;;;;;;;5102956;28;20215;-71
2021/11/23 10:15:46;;;;;;;5.03;3.83;;;;;;;;;;5106613;28;20201;-72
2021/11/23 10:18:19;;;;;;;7.83;4.47;;;;;;;;;;5103896;28;20222;-70
2021/11/23 10:20:49;;;;;;;8.23;4.60;;;;;;;;;;5105275;28;20578;-71
2021/11/23 10:23:21;;;;;;;5.13;4.53;;;;;;;;;;5103846;28;20205;-70
2021/11/23 10:25:51;;;;;;;10.13;5.00;;;;;;;;;;5103564;28;20622;-71
2021/11/23 10:28:21;;;;;;;8.27;5.27;;;;;;;;;;5089153;28;20283;-70
2021/11/23 10:30:50;;;;;;;12.97;6.70;;;;;;;;;;5084871;28;20615;-71
2021/11/23 10:33:18;;;;;;;12.73;6.13;;;;;;;;;;5082887;28;20208;-71
2021/11/23 10:35:51;;;;;;;15.03;6.33;;;;;;;;;;5095094;28;20289;-71
2021/11/23 10:38:19;;;;;;;10.10;5.10;;;;;;;;;;5097405;28;20235;-70
2021/11/23 10:40:47;;;;;;;8.17;5.27;;;;;;;;;;5097231;28;20229;-70
2021/11/23 10:43:17;;;;;;;8.33;5.47;;;;;;;;;;5097358;28;20243;-71
2021/11/23 10:45:47;;;;;;;8.10;5.03;;;;;;;;;;5097093;28;20635;-72
2021/11/23 10:48:15;;;;;;;5.70;4.67;;;;;;;;;;5092398;28;20252;-70
2021/11/23 10:50:56;;;;;;;6.47;5.10;;;;;;;;;;5092092;28;20193;-70
2021/11/23 10:53:25;;;;;;;5.27;4.50;;;;;;;;;;5102585;28;20205;-71
2021/11/23 10:55:53;;;;;;;5.83;4.47;;;;;;;;;;5103345;28;20299;-71
2021/11/23 10:58:21;;;;;;;6.10;4.50;;;;;;;;;;5104153;28;20221;-70
2021/11/23 11:00:49;;;;;;;5.87;4.60;;;;;;;;;;5104474;28;20227;-72
2021/11/23 11:03:19;;;;;;;8.67;4.47;;;;;;;;;;5106593;28;20216;-72
2021/11/23 11:05:47;;;;;;;4.90;4.03;;;;;;;;;;5103138;28;20277;-72
2021/11/23 11:08:22;;;;;;;4.73;4.10;;;;;;;;;;5112107;28;20708;-71
2021/11/23 11:10:51;;;;;;;6.23;4.63;;;;;;;;;;5097464;28;20211;-72
2021/11/23 11:13:21;;;;;;;4.53;3.93;;;;;;;;;;5103947;28;20564;-71
2021/11/23 11:15:50;;;;;;;4.17;3.47;;;;;;;;;;5094251;28;20288;-72
2021/11/23 11:18:21;;;;;;;5.47;4.50;;;;;;;;;;5101025;28;20229;-72
2021/11/23 11:20:50;;;;;;;4.57;4.07;;;;;;;;;;5100965;28;20312;-72
2021/11/23 11:23:22;;;;;;;6.53;4.00;;;;;;;;;;5100925;28;20288;-71
2021/11/23 11:26:01;;;;;;;5.03;4.00;;;;;;;;;;5100824;28;20265;-72
2021/11/23 11:28:39;;;;;;;6.43;4.10;;;;;;;;;;5099963;28;20767;-71
2021/11/23 11:31:08;;;;;;;6.40;4.13;;;;;;;;;;5100913;28;20265;-72
2021/11/23 11:33:38;;;;;;;5.97;4.10;;;;;;;;;;5105334;28;20278;-72
2021/11/23 11:36:06;;;;;;;14.30;4.93;;;;;;;;;;5108088;28;20222;-72
2021/11/23 11:38:38;;;;;;;4.53;4.10;;;;;;;;;;5110504;28;20223;-72
2021/11/23 11:41:28;;;;;;;6.13;5.03;;;;;;;;;;5106461;28;20221;-72
2021/11/23 11:44:07;;;;;;;6.03;4.57;;;;;;;;;;5107143;28;20235;-72
2021/11/23 11:46:36;;;;;;;4.87;4.40;;;;;;;;;;5106387;28;20197;-72
2021/11/23 11:49:05;;;;;;;5.90;4.40;;;;;;;;;;5108660;28;20706;-72
2021/11/23 11:51:34;;;;;;;4.63;4.07;;;;;;;;;;5109236;28;20278;-73
2021/11/23 11:54:06;;;;;;;7.50;5.27;;;;;;;;;;5109328;28;20236;-71
2021/11/23 11:56:42;;;;;;;5.20;4.20;;;;;;;;;;5111198;28;20193;-74
2021/11/23 11:59:24;;;;;;;4.47;4.07;;;;;;;;;;5088816;28;20906;-71
2021/11/23 12:01:53;;;;;;;7.80;4.43;;;;;;;;;;5086866;28;20221;-71
2021/11/23 12:04:22;;;;;;;5.20;4.27;;;;;;;;;;5087407;28;20236;-72
2021/11/23 12:07:14;;;;;;;6.53;4.10;;;;;;;;;;5086641;28;20669;-72
2021/11/23 12:09:43;;;;;;;5.37;4.47;;;;;;;;;;5079678;28;20271;-72
2021/11/23 12:12:33;;;;;;;6.87;4.70;;;;;;;;;;5087500;28;20204;-71
2021/11/23 12:15:09;;;;;;;5.40;4.57;;;;;;;;;;5052600;28;20199;-68
2021/11/23 12:17:49;;;;;;;7.27;4.80;;;;;;;;;;5088121;28;20198;-78
2021/11/23 12:20:32;;;;;;;4.67;4.17;;;;;;;;;;5087661;28;20193;-76
2021/11/23 12:23:16;;;;;;;7.93;4.80;;;;;;;;;;5094009;28;20257;-77
2021/11/23 12:25:55;;;;;;;6.00;4.67;;;;;;;;;;5088785;28;20201;-76
2021/11/23 12:28:23;;;;;;;5.67;4.93;;;;;;;;;;5089632;28;20239;-74
2021/11/23 12:30:54;;;;;;;6.10;4.43;;;;;;;;;;5101574;28;20283;-73
2021/11/23 12:33:22;;;;;;;5.60;4.70;;;;;;;;;;5108660;28;20202;-73
2021/11/23 12:35:50;;;;;;;5.50;4.90;;;;;;;;;;5104998;28;20198;-72
2021/11/23 12:38:25;;;;;;;6.93;4.80;;;;;;;;;;5098982;28;20233;-71
2021/11/23 12:40:54;;;;;;;6.37;4.27;;;;;;;;;;5099354;28;20211;-74
2021/11/23 12:43:22;;;;;;;5.27;4.23;;;;;;;;;;5099281;28;20233;-71
2021/11/23 12:45:50;;;;;;;6.93;4.73;;;;;;;;;;5099160;28;20687;-72
2021/11/23 12:48:30;;;;;;;10.17;4.63;;;;;;;;;;5099243;28;20660;-73
2021/11/23 12:50:58;;;;;;;5.63;4.57;;;;;;;;;;5099135;28;20211;-77
2021/11/23 12:53:26;;;;;;;6.00;4.30;;;;;;;;;;5098666;28;20193;-75
2021/11/23 12:55:55;;;;;;;4.83;4.27;;;;;;;;;;5091909;28;20637;-74
2021/11/23 12:58:22;;;;;;;4.93;3.90;;;;;;;;;;5086471;28;20591;-76
2021/11/23 13:00:50;;;;;;;5.73;4.73;;;;;;;;;;5086983;28;20704;-76
2021/11/23 13:03:19;;;;;;;5.03;4.10;;;;;;;;;;5092443;28;20225;-75
2021/11/23 13:05:49;;;;;;;5.17;4.53;;;;;;;;;;5086611;28;20683;-76
2021/11/23 13:08:19;;;;;;;5.53;4.70;;;;;;;;;;5088452;28;20229;-78
2021/11/23 13:10:49;;;;;;;5.83;4.67;;;;;;;;;;5086475;28;20209;-78
2021/11/23 13:13:21;;;;;;;5.27;4.47;;;;;;;;;;5087541;28;20190;-77
2021/11/23 13:15:50;;;;;;;5.27;3.80;;;;;;;;;;5093279;28;20251;-78
2021/11/23 13:18:20;;;;;;;6.83;4.80;;;;;;;;;;5104675;28;20227;-74
2021/11/23 13:20:51;;;;;;;6.13;4.53;;;;;;;;;;5106718;28;20280;-74
2021/11/23 13:23:22;;;;;;;9.53;4.60;;;;;;;;;;5105489;28;20227;-77
2021/11/23 13:25:51;;;;;;;4.53;4.13;;;;;;;;;;5106085;28;20201;-77
2021/11/23 13:28:24;;;;;;;4.60;3.63;;;;;;;;;;5103853;28;20213;-74
2021/11/23 13:30:55;;;;;;;5.73;4.03;;;;;;;;;;5085895;28;20233;-75
2021/11/23 13:33:29;;;;;;;4.80;3.97;;;;;;;;;;5091482;28;20629;-75
2021/11/23 13:36:01;;;;;;;5.13;4.63;;;;;;;;;;5083322;28;20281;-74
2021/11/23 13:38:31;;;;;;;5.03;4.03;;;;;;;;;;5087411;28;20592;-74
2021/11/23 13:41:01;;;;;;;5.33;4.47;;;;;;;;;;5086890;28;20294;-75
2021/11/23 13:43:29;;;;;;;5.10;4.43;;;;;;;;;;5083339;28;20234;-75
2021/11/23 13:45:58;;;;;;;5.50;4.33;;;;;;;;;;5095944;28;20199;-73
2021/11/23 13:48:26;;;;;;;5.90;4.50;;;;;;;;;;5096387;28;20599;-73
2021/11/23 13:51:03;;;;;;;4.80;3.97;;;;;;;;;;5103990;28;20603;-73
2021/11/23 13:53:45;;;;;;;7.50;4.70;;;;;;;;;;5106631;28;20231;-72
2021/11/23 13:56:14;;;;;;;5.13;4.57;;;;;;;;;;5105276;28;20229;-72
2021/11/23 13:58:48;;;;;;;7.13;4.93;;;;;;;;;;5106133;28;20225;-71
2021/11/23 14:01:16;;;;;;;4.93;4.33;;;;;;;;;;5105214;28;20197;-74
2021/11/23 14:03:45;;;;;;;6.13;5.37;;;;;;;;;;5104726;28;20274;-74
2021/11/23 14:06:14;;;;;;;5.20;4.20;;;;;;;;;;5108170;28;20279;-72
2021/11/23 14:08:42;;;;;;;9.17;5.23;;;;;;;;;;5106489;28;20217;-72
2021/11/23 14:11:13;;;;;;;7.00;4.83;;;;;;;;;;5088209;28;20542;-73
2021/11/23 14:13:43;;;;;;;7.73;5.00;;;;;;;;;;5086102;28;20643;-73
2021/11/23 14:16:13;;;;;;;6.13;5.00;;;;;;;;;;5095449;28;20205;-73
2021/11/23 14:18:41;;;;;;;5.57;4.83;;;;;;;;;;5096528;28;20233;-74
2021/11/23 14:21:11;;;;;;;5.20;4.50;;;;;;;;;;5097762;28;20207;-73
2021/11/23 14:23:43;;;;;;;7.60;4.77;;;;;;;;;;5096317;28;20222;-73
2021/11/23 14:26:13;;;;;;;7.80;4.50;;;;;;;;;;5097705;28;20205;-73
2021/11/23 14:28:43;;;;;;;6.87;4.90;;;;;;;;;;5097799;28;20221;-74
2021/11/23 14:31:13;;;;;;;6.33;4.73;;;;;;;;;;5097760;28;20205;-73
2021/11/23 14:33:41;;;;;;;6.20;4.77;;;;;;;;;;5097693;28;20284;-74
2021/11/23 14:36:09;;;;;;;6.27;4.70;;;;;;;;;;5095760;28;20202;-75
2021/11/23 14:38:37;;;;;;;6.60;4.67;;;;;;;;;;5097689;28;20227;-74
2021/11/23 14:41:07;;;;;;;5.63;4.77;;;;;;;;;;5097426;28;20289;-72
2021/11/23 14:43:35;;;;;;;5.00;4.03;;;;;;;;;;5097452;28;20240;-73
2021/11/23 14:46:03;;;;;;;13.40;5.20;;;;;;;;;;5099932;28;20197;-72
2021/11/23 14:48:31;;;;;;;6.93;5.13;;;;;;;;;;5101842;28;20221;-74
2021/11/23 14:51:19;;;;;;;5.23;4.47;;;;;;;;;;5111450;28;20205;-73
2021/11/23 14:53:47;;;;;;;5.57;4.63;;;;;;;;;;5093265;28;20197;-74
2021/11/23 14:56:16;;;;;;;8.47;6.60;;;;;;;;;;5087380;28;20194;-74